Time;durP1;ratioP1;P1;durP2;ratioP2;P2;SDS_P1;SDS_P2;PMS_P1;PMS_P2;Temp;Humidity;BMP_temperature;BMP_pressure;BME280_temperature;BME280_humidity;BME280_pressure;Samples;Min_cycle;Max_cycle;Signal;HPM_P1;HPM_P2
2022/01/16 00:06:17;;;;;;;83.43;32.85;;;;;;;-4.50;100.00;101227.94;6324656;28;20048;-67
2022/01/16 00:09:18;;;;;;;129.67;35.90;;;;;;;-4.59;100.00;101227.72;6323681;28;20051;-72
2022/01/16 00:12:22;;;;;;;103.78;29.98;;;;;;;-4.70;100.00;101223.28;6324778;28;20123;-72
2022/01/16 00:15:23;;;;;;;97.95;30.75;;;;;;;-4.71;100.00;101196.13;6307436;28;20043;-69
2022/01/16 00:18:29;;;;;;;130.65;30.65;;;;;;;-4.60;100.00;101201.41;6324596;28;20072;-72
2022/01/16 00:21:38;;;;;;;106.90;31.27;;;;;;;-4.62;100.00;101222.59;6324665;28;20051;-74
2022/01/16 00:24:39;;;;;;;96.13;32.92;;;;;;;-4.69;100.00;101208.88;6324522;28;20366;-73
2022/01/16 00:27:40;;;;;;;90.93;30.85;;;;;;;-4.80;100.00;101221.38;6305675;28;20059;-67
2022/01/16 00:30:41;;;;;;;98.43;31.10;;;;;;;-4.78;100.00;101244.34;6289666;28;20048;-67
2022/01/16 00:33:44;;;;;;;121.05;33.03;;;;;;;-4.75;100.00;101255.44;6306351;28;20059;-67
2022/01/16 00:36:45;;;;;;;88.60;31.65;;;;;;;-4.81;100.00;101280.78;6324167;28;20055;-67
2022/01/16 00:39:46;;;;;;;85.07;31.10;;;;;;;-4.73;100.00;101230.03;6322781;28;20051;-73
2022/01/16 00:42:47;;;;;;;104.03;32.00;;;;;;;-4.81;100.00;101186.56;6322729;28;20040;-67
2022/01/16 00:45:47;;;;;;;105.05;31.15;;;;;;;-4.78;100.00;101234.16;6322866;28;20369;-68
2022/01/16 00:48:48;;;;;;;97.70;30.92;;;;;;;-4.87;100.00;101220.41;6305985;28;20060;-67
2022/01/16 00:51:49;;;;;;;90.65;29.88;;;;;;;-4.83;100.00;101217.94;6323716;28;20036;-66
2022/01/16 00:54:50;;;;;;;91.40;31.38;;;;;;;-4.75;100.00;101212.16;6322527;28;20403;-67
2022/01/16 00:57:50;;;;;;;78.47;30.00;;;;;;;-4.80;100.00;101212.88;6305521;28;20043;-73
2022/01/16 01:00:51;;;;;;;103.65;26.23;;;;;;;-4.88;100.00;101240.72;6323226;28;20131;-67
2022/01/16 01:03:52;;;;;;;123.68;28.77;;;;;;;-4.97;100.00;101236.31;6323473;28;20044;-68
2022/01/16 01:06:53;;;;;;;108.65;28.75;;;;;;;-4.97;100.00;101213.41;6323526;28;20043;-75
2022/01/16 01:09:54;;;;;;;90.95;29.67;;;;;;;-4.99;100.00;101245.59;6323106;28;20098;-67
2022/01/16 01:12:57;;;;;;;119.55;30.27;;;;;;;-5.00;100.00;101213.34;6322229;28;20044;-73
2022/01/16 01:16:03;;;;;;;72.63;29.90;;;;;;;-4.94;100.00;101218.56;6322857;28;20392;-68
2022/01/16 01:19:05;;;;;;;109.88;30.73;;;;;;;-5.01;100.00;101214.16;6323141;28;20040;-67
2022/01/16 01:22:06;;;;;;;93.10;30.08;;;;;;;-5.00;100.00;101129.34;6322069;28;20051;-73
2022/01/16 01:25:08;;;;;;;84.85;31.35;;;;;;;-5.03;100.00;101141.16;6323107;28;20686;-73
2022/01/16 01:28:11;;;;;;;76.35;29.45;;;;;;;-4.88;100.00;101136.34;6323056;28;20044;-67
2022/01/16 01:31:12;;;;;;;115.28;30.38;;;;;;;-4.94;100.00;101129.47;6322996;28;20043;-67
2022/01/16 01:34:13;;;;;;;102.20;29.77;;;;;;;-4.92;100.00;101177.84;6321690;28;20044;-67
2022/01/16 01:37:14;;;;;;;96.55;28.70;;;;;;;-5.04;100.00;101187.78;6321493;28;20066;-73
2022/01/16 01:40:24;;;;;;;96.80;28.98;;;;;;;-5.03;100.00;101192.06;6321495;28;20476;-73
2022/01/16 01:53:05;;;;;;;119.70;24.58;;;;;;;-5.20;100.00;101164.56;6321186;28;20044;-67
2022/01/16 01:56:08;;;;;;;83.20;27.23;;;;;;;-5.11;100.00;101129.09;6321129;28;20044;-67
2022/01/16 01:59:10;;;;;;;98.82;24.20;;;;;;;-5.07;100.00;101156.34;6304381;28;20449;-67
2022/01/16 02:02:11;;;;;;;103.07;26.33;;;;;;;-5.07;100.00;101155.50;6320321;28;20074;-73
2022/01/16 02:05:12;;;;;;;87.43;28.10;;;;;;;-5.08;100.00;101156.34;6303380;28;20411;-67
2022/01/16 02:08:13;;;;;;;102.40;26.40;;;;;;;-4.96;100.00;101165.88;6320229;28;20040;-72
2022/01/16 02:11:16;;;;;;;73.97;24.65;;;;;;;-4.96;100.00;101176.06;6303797;28;20407;-72
2022/01/16 02:14:46;;;;;;;;;;;;;;;-4.93;100.00;101165.97;6322473;28;20093;-72
2022/01/16 02:37:24;;;;;;;58.17;20.45;;;;;;;-4.75;100.00;101222.34;6306438;28;20064;-73
2022/01/16 02:40:27;;;;;;;70.18;22.60;;;;;;;-4.69;100.00;101209.75;6320318;28;20055;-72
2022/01/16 02:43:33;;;;;;;66.13;18.67;;;;;;;-4.71;100.00;101219.03;6320459;28;20093;-67
2022/01/16 02:49:35;;;;;;;115.47;17.50;;;;;;;-4.80;100.00;101223.94;6303367;28;20487;-73
2022/01/16 02:52:35;;;;;;;59.30;17.55;;;;;;;-4.81;100.00;101223.91;6286708;28;20507;-68
2022/01/16 02:55:43;;;;;;;44.47;17.23;;;;;;;-4.80;100.00;101215.44;6320282;28;20423;-67
2022/01/16 02:58:45;;;;;;;87.95;16.38;;;;;;;-4.81;100.00;101206.94;6321251;28;20076;-67
2022/01/16 03:01:46;;;;;;;42.42;16.63;;;;;;;-4.81;100.00;101199.31;6287065;28;20055;-67
2022/01/16 03:04:46;;;;;;;36.72;13.75;;;;;;;-5.00;100.00;101194.66;6321093;28;20044;-74
2022/01/16 03:07:47;;;;;;;32.88;15.38;;;;;;;-4.89;100.00;101211.03;6320113;28;20036;-73
2022/01/16 03:11:16;;;;;;;46.55;14.75;;;;;;;-4.90;100.00;101210.16;6321074;28;20044;-73
2022/01/16 03:14:12;;;;;;;32.42;14.95;;;;;;;-4.88;100.00;101187.25;6319778;28;20121;-73
2022/01/16 03:17:23;;;;;;;48.85;15.13;;;;;;;-4.80;100.00;101203.56;6321192;28;20075;-73
2022/01/16 03:23:44;;;;;;;33.08;12.30;;;;;;;-4.87;100.00;101202.56;6319180;28;20063;-73
2022/01/16 03:26:44;;;;;;;40.38;12.80;;;;;;;-4.77;100.00;101202.78;6321028;28;20066;-73
2022/01/16 03:29:57;;;;;;;38.45;13.15;;;;;;;-4.78;100.00;101194.25;6320675;28;20047;-67
2022/01/16 03:32:58;;;;;;;49.33;12.18;;;;;;;-4.78;100.00;101196.81;6321003;28;20119;-67
2022/01/16 03:35:59;;;;;;;59.67;12.43;;;;;;;-4.79;100.00;101196.78;6286111;28;20051;-73
2022/01/16 03:38:59;;;;;;;32.92;12.13;;;;;;;-4.83;100.00;101183.13;6319347;28;20113;-73
2022/01/16 03:42:01;;;;;;;38.88;13.95;;;;;;;-4.77;100.00;101179.88;6306765;28;20116;-73
2022/01/16 03:45:06;;;;;;;44.65;14.55;;;;;;;-4.82;100.00;101189.09;6325408;28;20047;-68
2022/01/16 03:48:08;;;;;;;62.42;13.80;;;;;;;-4.81;100.00;101180.63;6325224;28;20044;-67
2022/01/16 03:51:09;;;;;;;56.70;13.15;;;;;;;-4.77;100.00;101182.41;6325031;28;20082;-67
2022/01/16 03:54:12;;;;;;;29.45;12.32;;;;;;;-4.75;100.00;101185.84;6307137;28;20165;-72
2022/01/16 03:57:13;;;;;;;30.73;13.98;;;;;;;-4.70;100.00;101180.00;6323800;28;20056;-68
2022/01/16 04:00:14;;;;;;;42.00;14.32;;;;;;;-4.74;100.00;101187.53;6323803;28;20044;-67
2022/01/16 04:03:15;;;;;;;44.78;13.25;;;;;;;-4.78;100.00;101185.75;6323902;28;20043;-73
2022/01/16 04:06:17;;;;;;;26.45;12.20;;;;;;;-4.80;100.00;101179.78;6323946;28;20448;-73
2022/01/16 04:09:18;;;;;;;32.03;12.23;;;;;;;-4.77;100.00;101175.63;6323638;28;20052;-72
2022/01/16 04:12:22;;;;;;;39.55;13.48;;;;;;;-4.83;100.00;101183.13;6324997;28;20075;-67
2022/01/16 04:15:32;;;;;;;52.55;14.05;;;;;;;-4.86;100.00;101177.97;6324819;28;20085;-67
2022/01/16 04:18:33;;;;;;;35.63;13.52;;;;;;;-4.81;100.00;101176.38;6323589;28;20090;-68
2022/01/16 04:21:33;;;;;;;47.80;14.32;;;;;;;-4.71;100.00;101182.53;6306430;28;20052;-67
2022/01/16 04:24:35;;;;;;;33.92;14.48;;;;;;;-4.67;100.00;101171.56;6305913;28;20036;-73
2022/01/16 04:27:35;;;;;;;38.42;14.20;;;;;;;-4.71;100.00;101162.16;6324467;28;20047;-68
2022/01/16 04:30:36;;;;;;;42.92;14.02;;;;;;;-4.65;100.00;101169.91;6323147;28;20078;-73
2022/01/16 04:33:37;;;;;;;42.08;14.00;;;;;;;-4.64;100.00;101175.84;6324377;28;20109;-72
2022/01/16 04:36:38;;;;;;;70.43;15.50;;;;;;;-4.69;100.00;101176.63;6306228;28;20044;-72
2022/01/16 04:39:48;;;;;;;154.30;16.60;;;;;;;-4.74;100.00;101187.53;6323026;28;20044;-67
2022/01/16 04:46:07;;;;;;;41.78;18.05;;;;;;;-4.62;100.00;101184.38;6324223;28;20403;-72
2022/01/16 04:49:08;;;;;;;71.82;16.27;;;;;;;-4.57;100.00;101196.38;6322880;28;20048;-72
2022/01/16 04:52:09;;;;;;;34.10;15.90;;;;;;;-4.57;100.00;101186.19;6304673;28;20161;-67
2022/01/16 04:55:12;;;;;;;57.05;15.73;;;;;;;-4.60;100.00;101181.03;6323739;28;20059;-67
2022/01/16 04:58:12;;;;;;;;;;;;;;;-4.47;100.00;101190.63;6324398;28;20387;-67
2022/01/16 05:01:13;;;;;;;41.85;12.75;;;;;;;-4.40;100.00;101183.97;6322489;28;19965;-68
2022/01/16 05:04:14;;;;;;;39.58;14.98;;;;;;;-4.36;100.00;101187.44;6323703;28;20472;-73
2022/01/16 05:07:15;;;;;;;43.45;14.93;;;;;;;-4.28;100.00;101188.44;6322333;28;20051;-72
2022/01/16 05:10:16;;;;;;;52.83;15.60;;;;;;;-4.28;100.00;101180.78;6305319;28;20044;-72
2022/01/16 05:16:41;;;;;;;63.03;15.85;;;;;;;-4.21;100.00;101176.66;6306193;28;20161;-67
2022/01/16 05:19:42;;;;;;;53.22;17.15;;;;;;;-4.16;100.00;101178.44;6322382;28;20396;-72
2022/01/16 05:22:42;;;;;;;43.60;16.55;;;;;;;-4.06;100.00;101174.34;6322610;28;20031;-72
2022/01/16 05:25:48;;;;;;;41.47;17.13;;;;;;;-4.07;100.00;101170.09;6323154;28;20047;-73
2022/01/16 05:28:49;;;;;;;44.42;19.98;;;;;;;-4.06;100.00;101164.13;6321701;28;20040;-72
2022/01/16 05:31:49;;;;;;;58.85;23.80;;;;;;;-4.02;100.00;101170.16;6322955;28;20040;-68
2022/01/16 05:34:50;;;;;;;56.42;21.05;;;;;;;-4.02;100.00;101168.47;6304857;28;20036;-72
2022/01/16 05:37:51;;;;;;;64.75;20.73;;;;;;;-4.00;100.00;101165.94;6321819;28;20051;-67
2022/01/16 05:40:52;;;;;;;48.63;20.35;;;;;;;-4.02;100.00;101168.47;6304699;28;20059;-67
2022/01/16 05:43:52;;;;;;;40.85;18.02;;;;;;;-3.99;100.00;101167.66;6321437;28;20058;-73
2022/01/16 05:46:53;;;;;;;41.05;18.55;;;;;;;-3.96;100.00;101172.81;6322729;28;20090;-73
2022/01/16 05:49:54;;;;;;;43.33;17.17;;;;;;;-4.05;100.00;101179.47;6321296;28;20047;-67
2022/01/16 05:52:55;;;;;;;46.20;18.70;;;;;;;-4.05;100.00;101191.38;6320936;28;20052;-73
2022/01/16 05:55:55;;;;;;;47.33;17.92;;;;;;;-4.12;100.00;101184.44;6322363;28;20177;-73
2022/01/16 05:58:56;;;;;;;51.08;18.70;;;;;;;-4.03;100.00;101179.50;6322341;28;20422;-68
2022/01/16 06:01:57;;;;;;;47.50;18.65;;;;;;;-4.11;100.00;101176.81;6303896;28;20051;-73
2022/01/16 06:04:57;;;;;;;46.08;20.13;;;;;;;-4.16;100.00;101178.44;6303952;28;20119;-73
2022/01/16 06:08:01;;;;;;;52.50;19.98;;;;;;;-4.02;100.00;101182.91;6320892;28;20468;-73
2022/01/16 06:11:02;;;;;;;57.50;22.02;;;;;;;-4.02;100.00;101183.75;6320513;28;20044;-67
2022/01/16 06:14:02;;;;;;;65.10;25.08;;;;;;;-3.95;100.00;101188.13;6320136;28;20043;-68
2022/01/16 06:17:04;;;;;;;65.22;23.67;;;;;;;-3.99;100.00;101186.38;6321576;28;20093;-68
2022/01/16 06:20:06;;;;;;;59.30;21.25;;;;;;;-3.99;100.00;101193.16;6321128;28;20044;-73
2022/01/16 06:23:07;;;;;;;78.15;25.33;;;;;;;-3.93;100.00;101189.03;6321692;28;20408;-67
2022/01/16 06:26:09;;;;;;;50.67;23.50;;;;;;;-3.87;100.00;101195.88;6286687;28;20052;-67
2022/01/16 06:29:10;;;;;;;54.55;20.75;;;;;;;-3.87;100.00;101186.56;6320900;28;20036;-73
2022/01/16 06:32:10;;;;;;;48.63;21.55;;;;;;;-3.81;100.00;101195.13;6320830;28;20489;-73
2022/01/16 06:35:14;;;;;;;57.45;21.25;;;;;;;-3.77;100.00;101199.47;6285774;28;20042;-67
2022/01/16 06:38:15;;;;;;;51.90;19.70;;;;;;;-3.77;100.00;101190.09;6318146;28;20040;-68
2022/01/16 06:41:15;;;;;;;52.63;20.17;;;;;;;-4.01;100.00;101198.22;6316141;28;20044;-67
2022/01/16 06:44:16;;;;;;;51.78;19.08;;;;;;;-3.76;100.00;101199.50;6320347;28;20412;-67
2022/01/16 06:47:18;;;;;;;47.97;19.20;;;;;;;-3.60;100.00;101200.59;6320363;28;20040;-67
2022/01/16 06:50:18;;;;;;;41.28;18.15;;;;;;;-3.55;100.00;101204.06;6315452;28;20097;-73
2022/01/16 06:53:19;;;;;;;49.50;18.92;;;;;;;-3.63;100.00;101203.09;6319051;28;20087;-74
2022/01/16 06:56:20;;;;;;;46.42;18.70;;;;;;;-3.47;100.00;101204.19;6320348;28;20048;-73
2022/01/16 06:59:21;;;;;;;44.90;18.25;;;;;;;-3.42;100.00;101202.53;6321487;28;20045;-67
2022/01/16 07:02:22;;;;;;;54.97;20.48;;;;;;;-3.43;100.00;101202.53;6303517;28;20135;-67
2022/01/16 07:05:23;;;;;;;53.63;20.40;;;;;;;-3.38;100.00;101209.41;6303519;28;20476;-72
2022/01/16 07:08:26;;;;;;;53.45;18.95;;;;;;;-3.31;100.00;101205.28;6317716;28;20101;-73
2022/01/16 07:11:27;;;;;;;60.42;20.73;;;;;;;-3.26;100.00;101194.25;6316554;28;20040;-68
2022/01/16 07:14:28;;;;;;;70.47;24.80;;;;;;;-3.18;100.00;101206.28;6321367;28;20040;-69
2022/01/16 07:17:28;;;;;;;110.80;37.65;;;;;;;-3.18;100.00;101206.28;6324996;28;20112;-68
2022/01/16 07:20:29;;;;;;;58.30;22.35;;;;;;;-3.14;100.00;101206.34;6326118;28;20086;-68
2022/01/16 07:23:30;;;;;;;50.00;21.63;;;;;;;-3.17;100.00;101200.34;6323527;28;20032;-68
2022/01/16 07:26:31;;;;;;;56.30;19.85;;;;;;;-3.18;100.00;101208.84;6324927;28;20051;-67
2022/01/16 07:29:32;;;;;;;52.45;17.80;;;;;;;-3.08;100.00;101216.66;6307912;28;20036;-68
2022/01/16 07:32:33;;;;;;;56.63;20.80;;;;;;;-3.05;100.00;101218.38;6325817;28;20039;-73
2022/01/16 07:35:36;;;;;;;65.25;24.70;;;;;;;-3.01;100.00;101219.28;6324697;28;20089;-67
2022/01/16 07:38:36;;;;;;;71.68;26.63;;;;;;;-2.92;100.00;101222.81;6323205;28;20371;-67
2022/01/16 07:41:37;;;;;;;68.03;26.40;;;;;;;-2.86;100.00;101216.94;6322010;28;20052;-73
2022/01/16 07:44:39;;;;;;;72.93;25.83;;;;;;;-2.80;100.00;101205.91;6321122;28;20081;-68
2022/01/16 07:47:39;;;;;;;85.75;28.40;;;;;;;-2.81;100.00;101211.88;6321466;28;20529;-67
2022/01/16 07:50:41;;;;;;;75.93;26.48;;;;;;;-2.76;100.00;101208.56;6322350;28;20130;-67
2022/01/16 07:53:42;;;;;;;75.32;26.10;;;;;;;-2.69;100.00;101210.31;6321174;28;20044;-73
2022/01/16 07:56:43;;;;;;;71.70;23.13;;;;;;;-2.71;100.00;101217.13;6322923;28;20499;-73
2022/01/16 07:59:44;;;;;;;59.60;23.65;;;;;;;-2.66;100.00;101214.59;6322998;28;20040;-73
2022/01/16 08:02:44;;;;;;;73.28;25.75;;;;;;;-2.52;100.00;101223.28;6322790;28;20044;-68
2022/01/16 08:05:45;;;;;;;64.07;24.55;;;;;;;-2.46;100.00;101215.69;6323862;28;20040;-73
2022/01/16 08:08:46;;;;;;;54.70;21.88;;;;;;;-2.43;100.00;101217.41;6325203;28;20044;-68
2022/01/16 08:11:47;;;;;;;61.70;23.50;;;;;;;-2.42;100.00;101229.38;6302030;28;20051;-75
2022/01/16 08:14:47;;;;;;;56.90;22.85;;;;;;;-2.40;100.00;101231.97;6320795;28;20043;-68
2022/01/16 08:17:48;;;;;;;59.47;22.42;;;;;;;-2.32;100.00;101222.66;6324444;28;20067;-76
2022/01/16 08:20:49;;;;;;;53.50;20.88;;;;;;;-2.21;100.00;101225.31;6323357;28;20139;-76
2022/01/16 08:23:50;;;;;;;58.67;22.95;;;;;;;-2.16;100.00;101233.88;6323137;28;20044;-67
2022/01/16 08:26:51;;;;;;;70.57;23.38;;;;;;;-2.10;100.00;101228.84;6321567;28;20066;-75
2022/01/16 08:29:52;;;;;;;68.03;23.93;;;;;;;-2.05;100.00;101224.63;6322711;28;20123;-68
2022/01/16 08:32:53;;;;;;;69.53;25.70;;;;;;;-2.00;100.00;101228.09;6320811;28;20498;-67
2022/01/16 08:35:54;;;;;;;58.78;23.52;;;;;;;-1.99;100.00;101229.81;6301417;28;20519;-68
2022/01/16 08:38:55;;;;;;;59.45;23.25;;;;;;;-1.89;100.00;101216.25;6319958;28;20383;-68
2022/01/16 08:41:56;;;;;;;66.28;23.83;;;;;;;-1.83;100.00;101218.88;6319705;28;20169;-68
2022/01/16 08:44:57;;;;;;;71.35;26.58;;;;;;;-1.75;100.00;101218.06;6318387;28;20531;-68
2022/01/16 08:47:57;;;;;;;71.57;24.88;;;;;;;-1.86;100.00;101208.59;6318645;28;20090;-70
2022/01/16 08:50:58;;;;;;;61.50;23.38;;;;;;;-1.71;100.00;101213.00;6302048;28;20044;-76
2022/01/16 08:53:59;;;;;;;80.47;29.05;;;;;;;-1.74;100.00;101194.19;6319693;28;20048;-68
2022/01/16 08:57:01;;;;;;;88.78;29.67;;;;;;;-1.66;100.00;101201.09;6317958;28;20044;-75
2022/01/16 09:00:04;;;;;;;101.75;38.17;;;;;;;-1.58;100.00;101195.19;6317878;28;20048;-76
2022/01/16 09:03:05;;;;;;;119.45;39.72;;;;;;;-1.57;100.00;101191.75;6318773;28;20084;-69
2022/01/16 09:06:06;;;;;;;60.75;22.58;;;;;;;-1.51;100.00;101190.09;6319313;28;20606;-69
2022/01/16 09:09:07;;;;;;;56.92;22.27;;;;;;;-1.40;100.00;101185.06;6318761;28;20090;-76
2022/01/16 09:12:08;;;;;;;50.17;21.15;;;;;;;-1.38;100.00;101180.81;6318174;28;20040;-68
2022/01/16 09:15:11;;;;;;;59.60;20.60;;;;;;;-1.18;100.00;101164.69;6300158;28;20408;-68
2022/01/16 09:18:13;;;;;;;69.65;21.48;;;;;;;-1.14;100.00;101167.25;6283012;28;20028;-67
2022/01/16 09:21:18;;;;;;;55.95;20.20;;;;;;;-0.94;100.00;101167.34;6301633;28;20040;-76
2022/01/16 09:24:19;;;;;;;76.07;18.45;;;;;;;-0.97;100.00;101156.22;6318341;28;20484;-67
2022/01/16 09:27:20;;;;;;;76.30;23.52;;;;;;;-0.98;100.00;101154.53;6317522;28;20122;-67
2022/01/16 09:30:22;;;;;;;51.35;18.00;;;;;;;-0.93;100.00;101156.25;6299268;28;20036;-68
2022/01/16 09:33:23;;;;;;;61.10;19.98;;;;;;;-0.83;100.00;101152.03;6318075;28;20036;-69
2022/01/16 09:36:24;;;;;;;72.22;20.27;;;;;;;-0.73;100.00;101148.63;6318411;28;20046;-75
2022/01/16 09:39:25;;;;;;;84.68;19.88;;;;;;;-0.86;100.00;101147.75;6317326;28;20540;-76
2022/01/16 09:42:27;;;;;;;73.85;21.67;;;;;;;-0.76;100.00;101140.06;6317698;28;20189;-74
2022/01/16 09:45:28;;;;;;;76.25;20.88;;;;;;;-0.59;100.00;101135.00;6316719;28;20539;-73
2022/01/16 09:48:29;;;;;;;88.10;25.48;;;;;;;-0.56;100.00;101130.72;6300772;28;20535;-73
2022/01/16 09:51:31;;;;;;;100.53;28.63;;;;;;;-0.51;100.00;101120.50;6317778;28;20059;-68
2022/01/16 09:54:32;;;;;;;79.97;23.10;;;;;;;-0.37;100.00;101118.81;6278546;28;1178050;-73
2022/01/16 09:57:33;;;;;;;60.38;20.52;;;;;;;-0.32;100.00;101121.38;6320941;28;20161;-68
2022/01/16 10:00:34;;;;;;;62.13;21.98;;;;;;;-0.31;100.00;101120.50;6318568;28;20048;-68
2022/01/16 10:03:38;;;;;;;73.80;20.95;;;;;;;-0.36;100.00;101119.66;6319745;28;20040;-73
2022/01/16 10:06:39;;;;;;;81.03;26.13;;;;;;;-0.45;100.00;101116.22;6319653;28;20040;-68
2022/01/16 10:09:44;;;;;;;65.45;22.42;;;;;;;-0.44;100.00;101111.94;6302638;28;20067;-72
2022/01/16 10:12:51;;;;;;;62.97;21.55;;;;;;;-0.51;100.00;101105.13;6318375;28;20651;-73
2022/01/16 10:15:57;;;;;;;64.78;22.17;;;;;;;-0.48;100.00;101097.41;6299718;28;20043;-73
2022/01/16 10:18:58;;;;;;;59.25;21.85;;;;;;;-0.39;100.00;101091.44;6300751;28;20687;-68
2022/01/16 10:22:11;;;;;;;63.55;24.92;;;;;;;-0.47;100.00;101092.28;6319304;28;20043;-73
2022/01/16 10:25:14;;;;;;;72.15;25.67;;;;;;;-0.37;100.00;101089.72;6317345;28;20433;-73
2022/01/16 10:28:20;;;;;;;81.38;27.98;;;;;;;-0.44;100.00;101070.91;6318476;28;20044;-69
2022/01/16 10:31:25;;;;;;;92.53;25.25;;;;;;;-0.48;100.00;101071.78;6319106;28;20043;-74
2022/01/16 10:34:29;;;;;;;153.73;38.20;;;;;;;-0.42;100.00;101071.78;6300802;28;20040;-69
2022/01/16 10:37:30;;;;;;;115.53;40.88;;;;;;;-0.20;100.00;101052.13;6318939;28;20036;-68
2022/01/16 10:40:34;;;;;;;76.70;26.73;;;;;;;-0.19;100.00;101058.09;6318386;28;20068;-74
2022/01/16 10:43:35;;;;;;;78.03;23.45;;;;;;;-0.21;100.00;101052.97;6317205;28;20032;-74
2022/01/16 10:46:36;;;;;;;82.22;24.10;;;;;;;-0.16;100.00;101055.53;6317824;28;20466;-74
2022/01/16 10:49:37;;;;;;;76.78;20.88;;;;;;;-0.25;100.00;101035.84;6314777;28;20504;-74
2022/01/16 10:52:54;;;;;;;73.53;22.02;;;;;;;-0.19;100.00;101040.13;6317526;28;20059;-74
2022/01/16 10:56:03;;;;;;;75.25;20.58;;;;;;;-0.25;100.00;101036.75;6316898;28;20035;-69
2022/01/16 10:59:21;;;;;;;70.88;22.70;;;;;;;-0.21;100.00;101030.75;6318160;28;20040;-74
2022/01/16 11:02:22;;;;;;;64.60;19.83;;;;;;;-0.13;100.00;101019.59;6303419;28;20185;-74
2022/01/16 11:05:23;;;;;;;61.40;21.40;;;;;;;-0.05;100.00;101018.72;6318638;28;20504;-69
2022/01/16 11:08:26;;;;;;;58.33;18.05;;;;;;;0.04;100.00;101017.84;6320713;28;20123;-69
2022/01/16 11:11:27;;;;;;;59.38;18.95;;;;;;;-0.07;100.00;101017.03;6320406;28;20048;-70
2022/01/16 11:14:31;;;;;;;63.38;20.70;;;;;;;0.00;100.00;101008.47;6301619;28;20048;-74
2022/01/16 11:17:32;;;;;;;79.07;21.08;;;;;;;-0.15;100.00;101004.22;6317481;28;20040;-69
2022/01/16 11:20:35;;;;;;;78.75;21.55;;;;;;;-0.04;100.00;101006.78;6319971;28;20086;-70
2022/01/16 11:26:54;;;;;;;58.03;19.40;;;;;;;0.04;100.00;101005.00;6317951;28;20048;-70
2022/01/16 11:29:54;;;;;;;63.72;18.60;;;;;;;0.04;100.00;100999.88;6317734;28;20061;-74
2022/01/16 11:32:57;;;;;;;77.97;22.73;;;;;;;0.02;100.00;100995.63;6316955;28;20041;-74
2022/01/16 11:36:03;;;;;;;55.60;18.77;;;;;;;-0.09;100.00;101004.19;6318724;28;20072;-74
2022/01/16 11:39:06;;;;;;;60.13;20.73;;;;;;;-0.11;100.00;100989.66;6318830;28;20036;-69
2022/01/16 11:42:15;;;;;;;;;;;;;;;0.03;100.00;100987.09;6318452;28;20040;-70
2022/01/16 11:45:18;;;;;;;51.35;16.65;;;;;;;0.05;100.00;100975.94;6332157;28;19920;-74
2022/01/16 11:48:40;;;;;;;91.95;19.63;;;;;;;0.07;100.00;100984.50;6315531;28;20075;-74
2022/01/16 11:51:40;;;;;;;64.15;18.77;;;;;;;-0.19;100.00;100979.41;6315417;28;20056;-70
2022/01/16 11:54:46;;;;;;;83.00;19.90;;;;;;;-0.17;100.00;100972.56;6314989;28;20066;-70
2022/01/16 11:57:56;;;;;;;116.10;36.35;;;;;;;-0.11;100.00;100969.16;6314173;28;20510;-70
2022/01/16 12:00:57;;;;;;;63.17;22.00;;;;;;;-0.19;100.00;100981.13;6317569;28;20040;-70
2022/01/16 12:03:58;;;;;;;65.43;17.77;;;;;;;-0.06;100.00;100975.13;6302273;28;20327;-71
2022/01/16 12:07:16;;;;;;;48.40;17.85;;;;;;;0.05;100.00;100978.50;6322756;28;20468;-70
2022/01/16 12:10:41;;;;;;;54.05;20.23;;;;;;;0.01;100.00;100988.78;6322204;28;20134;-75
2022/01/16 12:13:48;;;;;;;63.70;19.17;;;;;;;0.03;100.00;100987.09;6307544;28;20452;-75
2022/01/16 12:16:49;;;;;;;71.30;21.02;;;;;;;-0.09;100.00;100988.81;6306301;28;20032;-74
2022/01/16 12:19:51;;;;;;;64.47;21.67;;;;;;;-0.08;100.00;100984.56;6305610;28;20036;-74
2022/01/16 12:23:04;;;;;;;52.42;19.30;;;;;;;-0.03;100.00;100980.25;6320204;28;20047;-74
2022/01/16 12:26:05;;;;;;;50.30;17.73;;;;;;;0.03;100.00;100985.38;6318923;28;20476;-74
2022/01/16 12:29:06;;;;;;;56.67;21.60;;;;;;;0.08;100.00;100977.66;6321279;28;20063;-74
2022/01/16 12:32:29;;;;;;;46.63;16.60;;;;;;;-0.05;100.00;100971.69;6321465;28;20093;-74
2022/01/16 12:35:58;;;;;;;;;;;;;;;-0.36;100.00;100976.03;6323798;28;20093;-74
2022/01/16 12:38:58;;;;;;;52.65;16.50;;;;;;;-0.23;100.00;100978.59;6322271;28;19920;-74
2022/01/16 12:42:01;;;;;;;46.20;17.00;;;;;;;-0.34;100.00;100975.19;6321939;28;20123;-70
2022/01/16 12:45:02;;;;;;;40.80;15.68;;;;;;;-0.22;100.00;100972.59;6321859;28;20040;-70
2022/01/16 12:48:07;;;;;;;42.17;14.95;;;;;;;-0.26;100.00;100963.19;6322954;28;20067;-74
2022/01/16 12:51:08;;;;;;;63.47;19.30;;;;;;;-0.17;100.00;100957.19;6323082;28;20101;-70
2022/01/16 12:54:14;;;;;;;64.65;19.55;;;;;;;-0.15;100.00;100955.47;6322846;28;20496;-70
2022/01/16 12:57:25;;;;;;;50.80;15.90;;;;;;;-0.31;100.00;100952.09;6322578;28;20400;-69
2022/01/16 13:00:26;;;;;;;47.45;16.98;;;;;;;-0.36;100.00;100951.25;6323793;28;20051;-70
2022/01/16 13:03:29;;;;;;;50.97;16.58;;;;;;;-0.48;100.00;100962.38;6322319;28;20048;-69
2022/01/16 13:06:34;;;;;;;50.85;16.67;;;;;;;-0.46;100.00;100958.09;6322194;28;20097;-70
2022/01/16 13:09:35;;;;;;;67.72;22.83;;;;;;;-0.50;100.00;100965.78;6323433;28;20046;-74
2022/01/16 13:12:36;;;;;;;57.45;19.40;;;;;;;-0.47;100.00;100953.84;6322142;28;20044;-74
2022/01/16 13:15:37;;;;;;;54.17;19.90;;;;;;;-0.48;100.00;100964.94;6321841;28;20134;-74
2022/01/16 13:19:11;;;;;;;51.92;18.13;;;;;;;-0.41;100.00;100953.81;6321818;28;20036;-69
2022/01/16 13:22:15;;;;;;;46.92;17.38;;;;;;;-0.35;100.00;100946.97;6314486;28;20044;-69
2022/01/16 13:25:17;;;;;;;54.38;18.77;;;;;;;-0.38;100.00;100950.41;6321601;28;20040;-69
2022/01/16 13:28:28;;;;;;;55.63;19.35;;;;;;;-0.45;100.00;100954.69;6304987;28;20051;-69
2022/01/16 13:31:29;;;;;;;54.78;21.17;;;;;;;-0.58;100.00;100942.72;6321156;28;20047;-69
2022/01/16 13:34:39;;;;;;;47.10;16.48;;;;;;;-0.58;100.00;100942.72;6320318;28;20101;-74
2022/01/16 13:37:40;;;;;;;50.38;18.08;;;;;;;-0.47;100.00;100941.00;6320874;28;20043;-74
2022/01/16 13:40:47;;;;;;;53.70;19.70;;;;;;;-0.67;100.00;100917.09;6318349;28;20048;-74
2022/01/16 13:43:47;;;;;;;53.15;19.90;;;;;;;-0.76;100.00;100906.84;6320164;28;20786;-74
2022/01/16 13:46:57;;;;;;;47.05;17.63;;;;;;;-0.81;100.00;100912.84;6313950;28;20040;-73
2022/01/16 13:49:58;;;;;;;42.60;16.50;;;;;;;-0.86;100.00;100906.88;6320214;28;20044;-74
2022/01/16 13:53:05;;;;;;;53.33;16.30;;;;;;;-0.86;100.00;100900.91;6319489;28;20062;-73
2022/01/16 13:56:10;;;;;;;61.63;20.95;;;;;;;-0.75;100.00;100898.31;6319146;28;20046;-74
2022/01/16 13:59:11;;;;;;;44.40;16.80;;;;;;;-0.97;100.00;100894.91;6319689;28;20054;-74
2022/01/16 14:02:20;;;;;;;39.40;15.55;;;;;;;-1.10;100.00;100897.47;6319260;28;20506;-76
2022/01/16 14:05:24;;;;;;;44.38;15.25;;;;;;;-0.95;100.00;100895.75;6302375;28;20645;-73
2022/01/16 14:08:29;;;;;;;47.35;17.60;;;;;;;-1.05;100.00;100902.59;6285723;28;20044;-73
2022/01/16 14:11:41;;;;;;;50.10;19.25;;;;;;;-1.10;100.00;100899.19;6320267;28;20032;-70
2022/01/16 14:14:42;;;;;;;45.97;16.67;;;;;;;-0.97;100.00;100895.75;6321305;28;20040;-69
2022/01/16 14:17:55;;;;;;;50.53;17.48;;;;;;;-1.03;100.00;100899.19;6319661;28;20040;-69
2022/01/16 14:24:15;;;;;;;68.75;20.30;;;;;;;-1.09;100.00;100893.19;6304136;28;20048;-73
2022/01/16 14:27:28;;;;;;;57.25;20.08;;;;;;;-1.25;100.00;100885.53;6318894;28;20450;-73
2022/01/16 14:30:29;;;;;;;46.15;18.58;;;;;;;-1.08;100.00;100894.91;6320830;28;20044;-73
2022/01/16 14:33:29;;;;;;;59.67;19.98;;;;;;;-1.05;100.00;100885.53;6318865;28;20123;-72
2022/01/16 14:36:30;;;;;;;54.30;19.42;;;;;;;-1.08;100.00;100894.91;6315544;28;20070;-69